Time;durP1;ratioP1;P1;durP2;ratioP2;P2;SDS_P1;SDS_P2;PMS_P1;PMS_P2;Temp;Humidity;BMP_temperature;BMP_pressure;BME280_temperature;BME280_humidity;BME280_pressure;Samples;Min_cycle;Max_cycle;Signal;HPM_P1;HPM_P2
2022/01/29 00:01:54;;;;;;;32.80;14.38;;;;;;;1.66;100.00;102207.34;20907131;28;20567;-77
2022/01/29 00:11:55;;;;;;;36.08;16.05;;;;;;;1.52;100.00;102195.44;20921937;28;20081;-78
2022/01/29 00:21:58;;;;;;;45.83;16.77;;;;;;;1.55;100.00;102234.31;20897171;28;20053;-77
2022/01/29 00:31:59;;;;;;;30.60;13.73;;;;;;;1.74;100.00;102225.81;20900220;28;20075;-78
2022/01/29 00:42:01;;;;;;;29.52;12.77;;;;;;;1.94;100.00;102204.41;20918023;28;20465;-78
2022/01/29 00:52:18;;;;;;;29.23;13.38;;;;;;;2.08;100.00;102184.41;20917570;28;20061;-79
2022/01/29 01:02:20;;;;;;;25.15;11.93;;;;;;;2.22;100.00;102182.47;20918149;28;20044;-80
2022/01/29 01:12:22;;;;;;;25.50;11.27;;;;;;;2.33;100.00;102173.50;20934075;28;20045;-80
2022/01/29 01:22:23;;;;;;;24.95;10.88;;;;;;;2.35;100.00;102166.72;20933511;28;20057;-79
2022/01/29 01:32:25;;;;;;;27.92;10.60;;;;;;;2.45;100.00;102147.34;20942558;28;20052;-80
2022/01/29 01:42:27;;;;;;;27.10;10.88;;;;;;;2.47;100.00;102136.25;20923751;28;20413;-80
2022/01/29 01:52:28;;;;;;;23.67;11.20;;;;;;;2.44;100.00;102130.94;20922148;28;20473;-80
2022/01/29 02:02:30;;;;;;;23.55;10.13;;;;;;;2.30;100.00;102124.28;20947396;28;20045;-80
2022/01/29 02:12:34;;;;;;;24.10;10.68;;;;;;;2.32;100.00;102099.38;20927706;28;20107;-79
2022/01/29 02:22:38;;;;;;;24.47;10.97;;;;;;;2.27;100.00;102083.66;20913904;28;20446;-80
2022/01/29 02:32:44;;;;;;;23.98;10.65;;;;;;;2.29;100.00;102068.22;20939917;28;20049;-80
2022/01/29 02:42:46;;;;;;;24.17;12.13;;;;;;;2.32;100.00;102058.03;20946681;28;20070;-79
2022/01/29 02:52:47;;;;;;;29.13;12.23;;;;;;;2.24;100.00;102044.75;20940311;28;20049;-80
2022/01/29 03:02:49;;;;;;;27.42;12.52;;;;;;;2.26;100.00;102040.53;20884805;28;20111;-80
2022/01/29 03:12:51;;;;;;;25.88;11.52;;;;;;;2.13;100.00;102029.59;20942260;28;20052;-79
2022/01/29 03:22:52;;;;;;;26.05;12.50;;;;;;;2.11;100.00;102026.94;20945802;28;20440;-80
2022/01/29 03:32:54;;;;;;;28.35;12.75;;;;;;;1.98;100.00;102024.63;20929960;28;20070;-78
2022/01/29 03:43:16;;;;;;;27.88;13.45;;;;;;;1.95;100.00;102014.16;20932703;28;20049;-79
2022/01/29 03:53:18;;;;;;;33.70;14.85;;;;;;;2.13;100.00;101999.47;20902997;28;20049;-79
2022/01/29 04:03:19;;;;;;;29.38;13.25;;;;;;;2.29;100.00;101988.09;20932564;28;20049;-79
2022/01/29 04:13:23;;;;;;;27.38;12.43;;;;;;;2.41;100.00;101982.59;20931893;28;20418;-79
2022/01/29 04:23:25;;;;;;;27.25;12.05;;;;;;;2.47;100.00;101991.47;20928449;28;20460;-80
2022/01/29 04:33:28;;;;;;;27.88;11.57;;;;;;;2.48;100.00;102013.03;20916008;28;20049;-80
2022/01/29 04:43:31;;;;;;;25.70;11.35;;;;;;;2.46;100.00;101989.72;20931449;28;20099;-80
2022/01/29 04:53:33;;;;;;;22.77;9.32;;;;;;;2.43;100.00;101955.09;20873228;28;20079;-79
2022/01/29 05:03:35;;;;;;;26.52;11.57;;;;;;;2.48;99.45;101987.19;20938301;28;20056;-80
2022/01/29 05:35:24;;;;;;;15.45;6.47;;;;;;;2.39;96.47;101943.72;20887973;28;20049;-79
2022/01/29 05:45:26;;;;;;;14.10;6.45;;;;;;;2.53;96.02;101928.78;20914404;28;20041;-79
2022/01/29 05:55:28;;;;;;;21.30;8.48;;;;;;;2.54;96.44;101943.50;20935623;28;20049;-79
2022/01/29 06:05:29;;;;;;;20.42;9.23;;;;;;;2.47;97.52;101975.09;20925582;28;20040;-79
2022/01/29 06:15:34;;;;;;;24.25;9.13;;;;;;;2.51;98.13;101976.97;20907103;28;20130;-78
2022/01/29 06:25:37;;;;;;;21.45;9.15;;;;;;;2.52;97.87;101947.72;20907142;28;20339;-79
2022/01/29 06:35:40;;;;;;;22.42;10.48;;;;;;;2.49;97.36;101932.97;20906904;28;20053;-79
2022/01/29 06:45:44;;;;;;;23.27;10.82;;;;;;;2.41;97.19;101955.03;20928605;28;20052;-78
2022/01/29 06:55:46;;;;;;;22.40;10.67;;;;;;;2.33;97.00;101940.00;20935414;28;20063;-78
2022/01/29 07:05:49;;;;;;;25.75;12.20;;;;;;;2.31;96.50;101935.66;20900128;28;20045;-78
2022/01/29 07:15:52;;;;;;;28.43;12.87;;;;;;;2.27;96.74;101949.28;20897767;28;20072;-79
2022/01/29 07:25:53;;;;;;;24.48;11.50;;;;;;;2.20;96.96;101942.06;20896170;28;20049;-79
2022/01/29 07:35:56;;;;;;;24.65;12.38;;;;;;;2.17;97.30;101934.19;20913525;28;20045;-79
2022/01/29 07:45:57;;;;;;;28.08;12.60;;;;;;;2.28;96.37;101944.97;20913064;28;20049;-79
2022/01/29 07:55:58;;;;;;;29.60;12.82;;;;;;;2.39;96.18;101935.09;20912125;28;20132;-79
2022/01/29 08:06:00;;;;;;;23.90;12.40;;;;;;;2.51;96.14;101922.69;20897901;28;20522;-79
2022/01/29 08:16:02;;;;;;;26.98;13.40;;;;;;;2.69;95.19;101915.69;20876392;28;20190;-79
2022/01/29 08:26:04;;;;;;;27.33;13.80;;;;;;;2.78;94.49;101899.66;20895129;28;20137;-78
2022/01/29 08:36:07;;;;;;;30.85;13.77;;;;;;;2.87;94.49;101910.34;20872294;28;20040;-79
2022/01/29 08:46:09;;;;;;;28.85;14.23;;;;;;;2.96;95.12;101902.06;20847680;28;20052;-79
2022/01/29 08:56:10;;;;;;;28.80;13.85;;;;;;;3.11;94.69;101894.91;20837764;28;20045;-79
2022/01/29 09:06:17;;;;;;;29.42;13.65;;;;;;;3.11;94.62;101894.91;20813173;28;20057;-79
2022/01/29 09:16:19;;;;;;;32.13;14.75;;;;;;;2.75;96.58;101913.34;20905062;28;20048;-79
2022/01/29 09:26:20;;;;;;;33.20;16.05;;;;;;;2.74;96.64;101908.13;20909268;28;20079;-78
2022/01/29 09:36:22;;;;;;;35.10;15.85;;;;;;;2.51;98.63;101905.47;20903753;28;20691;-78
2022/01/29 09:46:30;;;;;;;42.28;18.13;;;;;;;2.51;100.00;101909.75;20913455;28;20407;-78
2022/01/29 09:56:33;;;;;;;33.67;16.20;;;;;;;2.73;100.00;101917.59;20903540;28;20052;-78
2022/01/29 10:06:36;;;;;;;33.90;16.17;;;;;;;2.82;100.00;101899.81;20921465;28;20434;-79
2022/01/29 10:16:41;;;;;;;30.63;15.20;;;;;;;2.75;100.00;101903.00;20904434;28;20049;-79
2022/01/29 10:26:45;;;;;;;27.85;14.40;;;;;;;2.69;100.00;101886.38;20904066;28;20506;-79
2022/01/29 10:37:17;;;;;;;30.45;14.50;;;;;;;2.63;100.00;101886.09;20898419;28;20041;-79
2022/01/29 10:47:19;;;;;;;26.92;14.18;;;;;;;2.73;100.00;101891.72;20899109;28;20045;-80
2022/01/29 10:57:30;;;;;;;29.35;14.70;;;;;;;2.70;100.00;101865.72;20920462;28;20052;-79
2022/01/29 11:07:34;;;;;;;25.27;13.20;;;;;;;2.77;100.00;101844.44;20900072;28;20045;-80
2022/01/29 11:17:36;;;;;;;25.40;12.50;;;;;;;2.97;100.00;101832.31;20901153;28;20122;-80
2022/01/29 11:27:38;;;;;;;20.52;10.50;;;;;;;3.03;100.00;101818.72;20923731;28;20068;-80
2022/01/29 11:37:46;;;;;;;20.92;11.27;;;;;;;3.16;100.00;101813.16;20896096;28;20110;-80
2022/01/29 11:47:48;;;;;;;21.70;9.90;;;;;;;3.19;100.00;101802.91;20915364;28;20041;-79
2022/01/29 11:58:26;;;;;;;24.85;11.63;;;;;;;3.42;100.00;101784.75;20920770;28;20641;-79
2022/01/29 12:08:36;;;;;;;15.95;9.15;;;;;;;3.51;99.58;101748.84;20785561;28;20037;-80
2022/01/29 12:18:41;;;;;;;17.20;8.80;;;;;;;3.78;98.30;101733.31;20870531;28;20045;-80
2022/01/29 12:28:48;;;;;;;16.90;8.63;;;;;;;4.01;96.79;101697.81;20913807;28;20049;-79
2022/01/29 12:38:51;;;;;;;14.43;8.02;;;;;;;4.14;95.92;101689.59;20911937;28;20041;-79
2022/01/29 12:49:07;;;;;;;15.50;8.35;;;;;;;4.16;97.17;101680.13;20910276;28;20052;-80
2022/01/29 12:59:11;;;;;;;13.32;6.90;;;;;;;4.21;97.33;101660.41;20837459;28;20124;-80
2022/01/29 13:09:21;;;;;;;15.33;7.77;;;;;;;4.13;98.09;101633.41;20825235;28;20042;-80
2022/01/29 13:19:25;;;;;;;15.52;7.95;;;;;;;3.98;98.95;101627.78;20831217;28;20045;-80
2022/01/29 13:29:35;;;;;;;16.13;7.68;;;;;;;4.01;99.85;101627.84;20910090;28;20110;-80
2022/01/29 13:39:47;;;;;;;20.13;8.93;;;;;;;3.93;99.26;101606.00;20880681;28;20410;-79
2022/01/29 13:49:51;;;;;;;15.00;7.18;;;;;;;4.14;99.41;101579.84;20902727;28;20071;-80
2022/01/29 14:00:01;;;;;;;14.25;7.43;;;;;;;3.99;100.00;101572.50;20919351;28;20049;-79
2022/01/29 14:10:10;;;;;;;13.95;7.80;;;;;;;4.17;100.00;101570.47;20920726;28;20072;-80
2022/01/29 14:20:17;;;;;;;16.00;6.78;;;;;;;4.09;100.00;101531.34;20854063;28;20041;-80
2022/01/29 14:41:45;;;;;;;;;;;;;;;4.38;99.44;101545.13;20833869;28;20124;-80
2022/01/29 14:51:47;;;;;;;12.52;7.13;;;;;;;4.34;100.00;101561.44;20878527;28;19943;-79
2022/01/29 15:01:49;;;;;;;13.57;6.88;;;;;;;4.45;100.00;101566.03;20909574;28;20098;-80
2022/01/29 15:11:50;;;;;;;14.13;6.97;;;;;;;4.52;100.00;101536.88;20918367;28;20143;-80
2022/01/29 15:21:52;;;;;;;13.02;6.53;;;;;;;4.46;100.00;101527.22;20905982;28;20053;-81
2022/01/29 15:31:53;;;;;;;12.88;6.45;;;;;;;4.49;100.00;101537.63;20916817;28;20199;-79
2022/01/29 15:41:57;;;;;;;11.85;5.72;;;;;;;4.51;100.00;101494.50;20901366;28;20520;-80
2022/01/29 15:51:59;;;;;;;12.52;5.30;;;;;;;4.51;100.00;101501.41;20904599;28;20045;-80
2022/01/29 16:02:01;;;;;;;9.98;4.78;;;;;;;4.61;100.00;101525.03;20916890;28;20044;-80
2022/01/29 16:12:04;;;;;;;7.82;4.10;;;;;;;4.68;100.00;101536.41;20906417;28;20635;-79
2022/01/29 16:22:05;;;;;;;9.45;4.72;;;;;;;4.78;100.00;101540.13;20865179;28;20095;-80
2022/01/29 16:32:07;;;;;;;8.95;4.43;;;;;;;4.77;100.00;101548.75;20906939;28;20044;-80
2022/01/29 16:42:09;;;;;;;8.73;3.33;;;;;;;4.92;98.60;101538.78;20877098;28;20362;-80
2022/01/29 16:52:10;;;;;;;8.13;3.78;;;;;;;4.91;98.08;101502.41;20911373;28;20103;-79
2022/01/29 17:02:16;;;;;;;7.95;3.55;;;;;;;4.99;97.05;101493.13;20909334;28;20053;-80
2022/01/29 17:12:18;;;;;;;6.55;2.92;;;;;;;5.13;96.99;101476.16;20889768;28;20053;-80
2022/01/29 17:22:20;;;;;;;6.70;3.20;;;;;;;5.18;97.53;101461.56;20901103;28;20568;-80
2022/01/29 17:32:22;;;;;;;6.35;3.05;;;;;;;5.22;97.21;101504.03;20862616;28;20083;-80
2022/01/29 17:42:24;;;;;;;6.75;2.88;;;;;;;5.21;98.40;101536.03;20909537;28;20060;-80
2022/01/29 17:52:25;;;;;;;7.35;2.92;;;;;;;5.22;99.14;101537.78;20892681;28;20138;-80
2022/01/29 18:02:27;;;;;;;5.85;3.03;;;;;;;5.35;99.97;101540.72;20898089;28;20416;-81
2022/01/29 18:12:28;;;;;;;6.63;3.40;;;;;;;5.17;100.00;101542.84;20933977;28;20079;-79
2022/01/29 18:22:30;;;;;;;6.03;2.42;;;;;;;5.28;100.00;101544.03;20921206;28;20045;-79
2022/01/29 18:32:31;;;;;;;5.47;2.78;;;;;;;5.29;100.00;101519.78;20901548;28;20049;-80
2022/01/29 18:42:33;;;;;;;5.20;2.50;;;;;;;5.26;100.00;101555.19;20902540;28;20045;-80
2022/01/29 18:52:36;;;;;;;6.53;2.40;;;;;;;5.16;100.00;101538.50;20921195;28;20045;-79
2022/01/29 19:02:38;;;;;;;6.32;2.72;;;;;;;5.23;100.00;101545.63;20920050;28;20426;-80
2022/01/29 19:12:40;;;;;;;4.78;2.67;;;;;;;5.17;100.00;101555.84;20913873;28;20055;-78
2022/01/29 19:22:41;;;;;;;6.10;3.00;;;;;;;5.13;100.00;101569.59;20910948;28;20410;-78
2022/01/29 19:32:46;;;;;;;6.78;2.80;;;;;;;5.10;100.00;101556.53;20889854;28;20835;-79
2022/01/29 19:42:47;;;;;;;6.18;3.10;;;;;;;5.06;100.00;101559.91;20931922;28;20107;-80
2022/01/29 19:52:50;;;;;;;9.13;4.70;;;;;;;5.03;100.00;101567.59;20921482;28;20049;-81
2022/01/29 20:02:52;;;;;;;7.88;4.32;;;;;;;4.94;100.00;101557.00;20931426;28;20061;-80
2022/01/29 20:12:54;;;;;;;9.60;5.13;;;;;;;4.86;100.00;101552.47;20912100;28;20412;-80
2022/01/29 20:22:56;;;;;;;10.85;5.32;;;;;;;4.93;100.00;101576.84;20852816;28;20049;-81
2022/01/29 20:32:58;;;;;;;12.13;5.88;;;;;;;4.72;100.00;101592.75;20913819;28;20045;-80
2022/01/29 20:43:01;;;;;;;8.60;4.30;;;;;;;4.74;100.00;101580.69;20904565;28;20099;-80
2022/01/29 20:53:03;;;;;;;9.65;5.68;;;;;;;4.68;100.00;101575.34;20897527;28;20056;-81
2022/01/29 21:03:06;;;;;;;7.72;4.65;;;;;;;4.66;100.00;101576.16;20927181;28;20049;-81
2022/01/29 21:13:08;;;;;;;8.80;5.60;;;;;;;4.63;100.00;101569.16;20920735;28;20115;-81
2022/01/29 21:23:10;;;;;;;9.10;5.18;;;;;;;4.62;100.00;101546.66;20934523;28;20077;-81
2022/01/29 21:33:11;;;;;;;7.97;4.72;;;;;;;4.67;100.00;101577.91;20930606;28;20041;-80
2022/01/29 21:43:15;;;;;;;7.65;4.22;;;;;;;4.63;100.00;101556.19;20955245;28;20139;-80
2022/01/29 21:53:17;;;;;;;7.32;4.18;;;;;;;4.72;100.00;101550.34;20894056;28;20125;-80
2022/01/29 22:03:19;;;;;;;8.15;4.75;;;;;;;4.73;100.00;101547.78;20865193;28;20075;-81
2022/01/29 22:13:20;;;;;;;10.48;5.15;;;;;;;4.68;100.00;101546.81;20891946;28;20041;-81
2022/01/29 22:23:22;;;;;;;7.35;4.32;;;;;;;4.66;100.00;101499.19;20929178;28;20041;-81
2022/01/29 22:33:25;;;;;;;6.32;3.50;;;;;;;4.70;100.00;101501.03;20933284;28;20049;-80
2022/01/29 22:43:27;;;;;;;7.10;4.40;;;;;;;4.92;100.00;101511.94;20937526;28;20048;-80
2022/01/29 22:53:29;;;;;;;5.20;2.80;;;;;;;5.05;100.00;101498.44;20944517;28;20049;-80
2022/01/29 23:03:30;;;;;;;7.10;2.83;;;;;;;5.06;100.00;101451.75;20945373;28;20045;-80
2022/01/29 23:13:39;;;;;;;4.22;1.92;;;;;;;5.39;100.00;101481.94;20944076;28;20353;-80
2022/01/29 23:23:47;;;;;;;4.57;2.58;;;;;;;5.76;100.00;101507.00;20927200;28;20045;-80
2022/01/29 23:44:09;;;;;;;7.33;2.60;;;;;;;5.97;100.00;101477.16;20938670;28;20075;-79
2022/01/29 23:54:10;;;;;;;5.68;2.50;;;;;;;6.07;100.00;101482.56;20924655;28;20510;-79
